Time;durP1;ratioP1;P1;durP2;ratioP2;P2;SDS_P1;SDS_P2;PMS_P1;PMS_P2;Temp;Humidity;BMP_temperature;BMP_pressure;BME280_temperature;BME280_humidity;BME280_pressure;Samples;Min_cycle;Max_cycle;Signal;HPM_P1;HPM_P2
2021/04/02 00:01:19;;;;;;;5.05;1.67;;;6.30;99.90;;;;;;4956009;28;20564;-83
2021/04/02 00:03:44;;;;;;;2.40;1.53;;;6.20;99.90;;;;;;4956416;29;20187;-82
2021/04/02 00:06:11;;;;;;;1.57;1.47;;;6.20;99.90;;;;;;4958199;29;20171;-82
2021/04/02 00:08:37;;;;;;;4.20;1.25;;;6.50;99.90;;;;;;4958105;28;20211;-82
2021/04/02 00:11:05;;;;;;;3.03;1.20;;;6.50;99.90;;;;;;4958416;29;20175;-81
2021/04/02 00:13:46;;;;;;;2.10;1.35;;;6.50;99.90;;;;;;4956940;28;20180;-81
2021/04/02 00:16:14;;;;;;;3.00;1.92;;;6.40;99.90;;;;;;4958651;29;20230;-82
2021/04/02 00:18:41;;;;;;;1.25;1.13;;;6.30;99.90;;;;;;4957316;29;20203;-82
2021/04/02 00:21:09;;;;;;;3.97;1.45;;;6.40;99.90;;;;;;4956924;28;20659;-82
2021/04/02 00:23:38;;;;;;;2.05;1.55;;;6.30;99.90;;;;;;4958256;29;20262;-82
2021/04/02 00:26:10;;;;;;;4.13;1.65;;;6.10;99.90;;;;;;4957183;28;20168;-82
2021/04/02 00:28:36;;;;;;;1.95;1.30;;;6.20;99.90;;;;;;4957341;29;20196;-82
2021/04/02 00:31:02;;;;;;;2.60;1.43;;;6.10;99.90;;;;;;4958491;29;20199;-82
2021/04/02 00:33:32;;;;;;;1.58;1.48;;;6.10;99.90;;;;;;4957979;29;20191;-82
2021/04/02 00:35:59;;;;;;;4.35;1.85;;;6.10;99.90;;;;;;4957760;29;20180;-81
2021/04/02 00:38:25;;;;;;;3.35;2.10;;;6.00;99.90;;;;;;4957317;29;20226;-81
2021/04/02 00:40:53;;;;;;;1.30;1.00;;;6.00;99.90;;;;;;4956055;29;20303;-81
2021/04/02 00:43:22;;;;;;;2.95;1.60;;;5.90;99.90;;;;;;4957407;29;20419;-82
2021/04/02 00:45:47;;;;;;;1.73;1.45;;;6.00;99.90;;;;;;4956459;29;20173;-83
2021/04/02 00:48:13;;;;;;;3.77;2.13;;;6.10;99.90;;;;;;4939776;29;20178;-82
2021/04/02 00:50:50;;;;;;;3.07;1.50;;;6.20;99.90;;;;;;4955686;29;20196;-83
2021/04/02 00:53:18;;;;;;;4.70;1.60;;;6.00;99.90;;;;;;4954693;28;20595;-81
2021/04/02 00:55:45;;;;;;;2.60;1.50;;;5.90;99.90;;;;;;4958085;28;20180;-83
2021/04/02 00:58:14;;;;;;;2.95;1.95;;;5.90;99.90;;;;;;4962770;29;20191;-82
2021/04/02 01:00:41;;;;;;;2.47;2.00;;;6.00;99.90;;;;;;4931171;29;20212;-82
2021/04/02 01:03:07;;;;;;;1.80;1.63;;;5.90;99.90;;;;;;4944489;29;20176;-82
2021/04/02 01:05:46;;;;;;;1.87;1.40;;;5.80;99.90;;;;;;4961386;29;20219;-82
2021/04/02 01:08:19;;;;;;;4.22;1.48;;;5.70;99.90;;;;;;4945665;29;20187;-83
2021/04/02 01:10:45;;;;;;;3.47;1.65;;;5.80;99.90;;;;;;4943963;29;20180;-84
2021/04/02 01:13:20;;;;;;;3.28;1.30;;;5.80;99.90;;;;;;4961707;29;20517;-82
2021/04/02 01:16:00;;;;;;;5.10;1.85;;;5.90;99.90;;;;;;4960562;29;20176;-81
2021/04/02 01:18:37;;;;;;;2.60;1.85;;;5.80;99.90;;;;;;4960364;28;20184;-83
2021/04/02 01:21:14;;;;;;;4.00;1.90;;;5.60;99.90;;;;;;4961195;29;20568;-82
2021/04/02 01:24:00;;;;;;;2.13;1.83;;;5.60;99.90;;;;;;4961303;29;20188;-84
2021/04/02 01:26:56;;;;;;;1.50;1.40;;;5.50;99.90;;;;;;4961065;29;20172;-82
2021/04/02 01:29:46;;;;;;;4.35;2.20;;;5.60;99.90;;;;;;4960646;29;20258;-83
2021/04/02 01:32:18;;;;;;;2.40;1.33;;;5.40;99.90;;;;;;4943588;29;20192;-82
2021/04/02 01:34:48;;;;;;;1.63;1.52;;;5.40;99.90;;;;;;4944280;29;20213;-81
2021/04/02 01:37:33;;;;;;;4.45;2.50;;;5.40;99.90;;;;;;4959556;29;20207;-81
2021/04/02 01:40:01;;;;;;;1.75;1.50;;;5.40;99.90;;;;;;4960102;29;20207;-82
2021/04/02 01:42:28;;;;;;;2.55;1.60;;;5.40;99.90;;;;;;4958802;29;20184;-81
2021/04/02 01:44:55;;;;;;;4.32;1.63;;;5.60;99.90;;;;;;4958889;29;20177;-82
2021/04/02 01:47:23;;;;;;;3.17;1.70;;;5.60;99.90;;;;;;4958352;29;20595;-82
2021/04/02 01:49:51;;;;;;;2.17;1.77;;;5.50;99.90;;;;;;4958493;29;20208;-82
2021/04/02 01:52:18;;;;;;;6.90;2.70;;;5.20;99.90;;;;;;4960027;29;20318;-81
2021/04/02 01:54:44;;;;;;;4.30;2.05;;;5.20;99.90;;;;;;4958639;28;20184;-83
2021/04/02 01:57:11;;;;;;;4.38;2.38;;;5.30;99.90;;;;;;4943744;29;20181;-81
2021/04/02 01:59:38;;;;;;;2.67;1.98;;;5.30;99.90;;;;;;4960293;29;20255;-81
2021/04/02 02:02:04;;;;;;;2.30;1.92;;;5.30;99.90;;;;;;4959708;29;20173;-81
2021/04/02 02:04:32;;;;;;;2.28;2.08;;;5.30;99.90;;;;;;4959514;29;20176;-80
2021/04/02 02:07:00;;;;;;;1.90;1.80;;;5.00;99.90;;;;;;4925991;29;20209;-80
2021/04/02 02:09:30;;;;;;;3.17;1.90;;;5.10;99.90;;;;;;4941485;29;20211;-81
2021/04/02 02:11:59;;;;;;;1.90;1.55;;;5.10;99.90;;;;;;4942220;29;20188;-80
2021/04/02 02:14:28;;;;;;;5.78;2.00;;;5.10;99.90;;;;;;4926143;29;20633;-80
2021/04/02 02:16:58;;;;;;;5.45;2.15;;;5.00;99.90;;;;;;4958984;29;20191;-81
2021/04/02 02:19:26;;;;;;;2.83;2.05;;;4.90;99.90;;;;;;4957866;29;20612;-80
2021/04/02 02:21:54;;;;;;;5.50;1.83;;;4.80;99.90;;;;;;4958686;29;20275;-81
2021/04/02 02:24:20;;;;;;;5.82;2.25;;;4.80;99.90;;;;;;4958729;29;20222;-82
2021/04/02 02:26:48;;;;;;;3.17;2.28;;;4.80;99.90;;;;;;4958377;28;20252;-80
2021/04/02 02:29:14;;;;;;;3.88;2.20;;;4.80;99.90;;;;;;4957153;29;20207;-81
2021/04/02 02:31:41;;;;;;;4.07;2.50;;;4.50;99.90;;;;;;4957832;29;20180;-82
2021/04/02 02:34:07;;;;;;;2.47;1.85;;;4.40;99.90;;;;;;4956969;28;20176;-83
2021/04/02 02:36:36;;;;;;;6.75;2.08;;;4.30;99.90;;;;;;4940400;29;20180;-82
2021/04/02 02:39:09;;;;;;;5.30;2.55;;;4.30;99.90;;;;;;4940755;29;20258;-82
2021/04/02 02:41:35;;;;;;;2.03;1.63;;;4.20;99.90;;;;;;4963019;29;20188;-82
2021/04/02 02:44:02;;;;;;;2.47;2.25;;;4.20;99.90;;;;;;4967153;28;20180;-81
2021/04/02 02:46:29;;;;;;;4.70;1.83;;;4.40;99.90;;;;;;4956170;28;20231;-81
2021/04/02 02:49:02;;;;;;;5.22;1.92;;;4.40;99.90;;;;;;4956378;29;20704;-81
2021/04/02 02:51:33;;;;;;;3.97;2.55;;;4.40;99.90;;;;;;4925543;29;20251;-81
2021/04/02 02:54:00;;;;;;;2.40;1.90;;;4.40;99.90;;;;;;4956879;29;20517;-81
2021/04/02 02:56:28;;;;;;;3.17;2.30;;;4.30;99.90;;;;;;4958298;28;20164;-80
2021/04/02 02:58:55;;;;;;;2.53;2.00;;;4.20;99.90;;;;;;4956404;29;20248;-81
2021/04/02 03:01:24;;;;;;;2.15;1.67;;;4.20;99.90;;;;;;4956725;29;20212;-82
2021/04/02 03:03:53;;;;;;;4.30;1.77;;;4.20;99.90;;;;;;4957744;29;20172;-82
2021/04/02 03:06:22;;;;;;;2.35;2.15;;;4.20;99.90;;;;;;4958357;29;20263;-82
2021/04/02 03:08:51;;;;;;;2.47;1.95;;;4.20;99.90;;;;;;4956627;29;20255;-82
2021/04/02 03:11:19;;;;;;;3.15;2.25;;;4.30;99.90;;;;;;4958307;28;20235;-82
2021/04/02 03:13:45;;;;;;;2.75;2.40;;;4.10;99.90;;;;;;4957634;28;20464;-82
2021/04/02 03:16:12;;;;;;;3.00;2.20;;;4.10;99.90;;;;;;4957228;28;20218;-82
2021/04/02 03:18:38;;;;;;;3.08;1.80;;;4.20;99.90;;;;;;4957566;28;20203;-82
2021/04/02 03:21:08;;;;;;;3.08;1.92;;;4.20;99.90;;;;;;4957866;29;20203;-80
2021/04/02 03:23:35;;;;;;;2.38;2.10;;;4.20;99.90;;;;;;4956661;28;20180;-81
2021/04/02 03:26:02;;;;;;;3.20;2.65;;;4.20;99.90;;;;;;4956554;29;20556;-82
2021/04/02 03:28:28;;;;;;;2.70;1.80;;;4.20;99.90;;;;;;4956452;29;20198;-82
2021/04/02 03:30:55;;;;;;;2.42;2.20;;;4.40;99.90;;;;;;4956767;29;20255;-82
2021/04/02 03:33:25;;;;;;;3.70;2.45;;;4.60;99.90;;;;;;4956455;29;20180;-81
2021/04/02 03:35:57;;;;;;;3.20;2.50;;;4.40;99.90;;;;;;4957237;28;20188;-81
2021/04/02 03:38:25;;;;;;;2.20;2.00;;;4.10;99.90;;;;;;4957970;29;20191;-81
2021/04/02 03:40:53;;;;;;;5.40;2.50;;;3.90;99.90;;;;;;4958000;29;20207;-81
2021/04/02 03:43:20;;;;;;;7.53;3.45;;;3.90;99.90;;;;;;4940624;29;20277;-81
2021/04/02 03:45:48;;;;;;;3.38;2.67;;;3.90;99.90;;;;;;4956075;28;20184;-82
2021/04/02 03:48:15;;;;;;;3.03;1.85;;;3.80;99.90;;;;;;4956481;29;20606;-80
2021/04/02 03:50:43;;;;;;;2.15;1.95;;;3.90;99.90;;;;;;4956436;28;20187;-82
2021/04/02 03:53:24;;;;;;;5.63;2.58;;;4.00;99.90;;;;;;4956905;29;20180;-82
2021/04/02 03:55:58;;;;;;;2.78;2.08;;;4.00;99.90;;;;;;4956629;29;20184;-81
2021/04/02 03:58:25;;;;;;;2.75;1.83;;;4.10;99.90;;;;;;4957977;29;20663;-82
2021/04/02 04:00:59;;;;;;;5.60;3.17;;;4.10;99.90;;;;;;4940464;29;20211;-82
2021/04/02 04:03:25;;;;;;;3.03;2.40;;;4.20;99.90;;;;;;4940183;29;20262;-81
2021/04/02 04:05:54;;;;;;;4.53;2.97;;;4.40;99.90;;;;;;4940297;29;20171;-82
2021/04/02 04:08:21;;;;;;;2.75;1.83;;;4.50;99.90;;;;;;4957793;29;20408;-82
2021/04/02 04:10:48;;;;;;;1.98;1.50;;;4.70;99.90;;;;;;4957212;29;20667;-82
2021/04/02 04:13:20;;;;;;;5.38;2.55;;;4.40;99.90;;;;;;4939965;29;20223;-82
2021/04/02 04:15:47;;;;;;;6.78;3.05;;;4.30;99.90;;;;;;4956339;29;20224;-81
2021/04/02 04:18:16;;;;;;;4.13;2.35;;;4.60;99.90;;;;;;4940031;29;20259;-80
2021/04/02 04:20:42;;;;;;;3.45;2.70;;;4.30;99.90;;;;;;4955668;28;20235;-80
2021/04/02 04:23:09;;;;;;;5.78;2.10;;;4.30;99.90;;;;;;4955331;29;20188;-82
2021/04/02 04:25:37;;;;;;;3.63;2.63;;;4.30;99.90;;;;;;4956297;28;20172;-82
2021/04/02 04:28:04;;;;;;;3.78;2.50;;;4.20;99.90;;;;;;4956137;29;20575;-81
2021/04/02 04:30:31;;;;;;;3.13;1.98;;;4.20;99.90;;;;;;4942658;29;20238;-81
2021/04/02 04:32:59;;;;;;;2.53;2.33;;;4.20;99.90;;;;;;4959768;28;20180;-81
2021/04/02 04:35:25;;;;;;;3.60;2.25;;;4.50;99.90;;;;;;4959660;28;20598;-81
2021/04/02 04:37:52;;;;;;;2.22;1.83;;;4.40;99.90;;;;;;4960378;29;20179;-81
2021/04/02 04:40:20;;;;;;;3.25;2.65;;;4.50;99.90;;;;;;4960637;29;20204;-80
2021/04/02 04:42:47;;;;;;;3.58;2.47;;;4.30;99.90;;;;;;4960217;29;20176;-80
2021/04/02 04:45:19;;;;;;;4.13;2.65;;;4.20;99.90;;;;;;4943549;29;20197;-82
2021/04/02 04:47:44;;;;;;;2.80;2.50;;;4.30;99.90;;;;;;4959672;28;20243;-82
2021/04/02 04:50:11;;;;;;;2.70;2.37;;;4.30;99.90;;;;;;4959170;28;20228;-80
2021/04/02 04:52:43;;;;;;;5.18;2.30;;;4.30;99.90;;;;;;4959440;29;20428;-80
2021/04/02 04:55:10;;;;;;;6.80;2.80;;;4.30;99.90;;;;;;4960381;29;20176;-81
2021/04/02 04:57:38;;;;;;;2.45;2.15;;;4.60;99.90;;;;;;4960433;29;20172;-81
2021/04/02 05:00:05;;;;;;;10.90;2.17;;;4.50;99.90;;;;;;4958816;29;20267;-82
2021/04/02 05:02:36;;;;;;;4.35;2.70;;;4.50;99.90;;;;;;4959811;29;20172;-80
2021/04/02 05:05:03;;;;;;;3.22;2.45;;;4.80;99.90;;;;;;4959088;29;20179;-81
2021/04/02 05:07:32;;;;;;;2.45;2.20;;;4.60;99.90;;;;;;4959387;28;20247;-81
2021/04/02 05:09:59;;;;;;;3.78;2.38;;;4.50;99.90;;;;;;4960583;29;20312;-81
2021/04/02 05:12:26;;;;;;;5.55;2.67;;;4.40;99.90;;;;;;4961787;29;20169;-83
2021/04/02 05:14:52;;;;;;;2.25;2.05;;;4.20;99.90;;;;;;4960175;29;20175;-81
2021/04/02 05:17:19;;;;;;;6.18;2.88;;;4.40;99.90;;;;;;4927099;29;20179;-82
2021/04/02 05:19:45;;;;;;;4.50;2.40;;;4.30;99.90;;;;;;4958810;28;20567;-82
2021/04/02 05:22:10;;;;;;;2.90;2.40;;;4.50;99.90;;;;;;4958914;28;20203;-81
2021/04/02 05:24:42;;;;;;;3.50;3.07;;;4.50;99.90;;;;;;4942987;29;20180;-81
2021/04/02 05:27:08;;;;;;;4.13;2.40;;;4.70;99.90;;;;;;4942690;29;20176;-81
2021/04/02 05:29:33;;;;;;;4.13;2.93;;;5.00;99.90;;;;;;4961452;28;20199;-85
2021/04/02 05:32:10;;;;;;;3.57;3.13;;;5.00;99.90;;;;;;4958961;28;20176;-84
2021/04/02 05:34:35;;;;;;;4.32;2.90;;;4.90;99.90;;;;;;4980801;28;20179;-85
2021/04/02 05:37:01;;;;;;;3.73;2.73;;;4.60;99.90;;;;;;4967684;28;20204;-85
2021/04/02 05:40:05;;;;;;;9.80;2.70;;;4.70;99.90;;;;;;4962148;28;20238;-85
2021/04/02 05:42:32;;;;;;;3.25;2.45;;;4.60;99.90;;;;;;4960637;28;20403;-83
2021/04/02 05:45:07;;;;;;;8.30;2.67;;;4.60;99.90;;;;;;4961261;29;20177;-85
2021/04/02 05:47:40;;;;;;;4.70;2.88;;;4.50;99.90;;;;;;4929312;29;20652;-83
2021/04/02 05:50:09;;;;;;;4.93;3.15;;;4.60;99.90;;;;;;4960030;29;20207;-82
2021/04/02 05:59:23;;;;;;;;;;;;;;;;;;;;;
2021/04/02 06:02:04;;;;;;;5.88;3.33;;;5.30;99.90;;;;;;4975488;28;20193;-83
2021/04/02 06:04:49;;;;;;;6.03;3.58;;;5.70;99.90;;;;;;4976985;28;20175;-83
2021/04/02 06:07:20;;;;;;;5.35;3.40;;;6.10;99.90;;;;;;4960441;28;20192;-84
2021/04/02 06:09:54;;;;;;;5.28;3.53;;;5.90;99.90;;;;;;4978531;28;20206;-84
2021/04/02 06:12:34;;;;;;;5.07;3.58;;;6.00;99.90;;;;;;4977399;28;20208;-83
2021/04/02 06:15:12;;;;;;;4.97;3.63;;;6.30;99.90;;;;;;4972643;28;20175;-84
2021/04/02 06:21:01;;;;;;;5.88;3.55;;;6.90;99.90;;;;;;4976725;28;20206;-83
2021/04/02 06:23:37;;;;;;;8.00;4.67;;;7.30;99.90;;;;;;4977956;28;20187;-83
2021/04/02 06:26:13;;;;;;;7.88;4.07;;;7.50;99.90;;;;;;4970576;28;20430;-82
2021/04/02 06:28:42;;;;;;;5.95;3.80;;;7.50;99.90;;;;;;4968974;28;20191;-82
2021/04/02 06:31:39;;;;;;;5.25;4.10;;;7.00;99.90;;;;;;4972973;28;20186;-83
2021/04/02 06:34:08;;;;;;;6.47;4.18;;;7.70;99.90;;;;;;4971611;28;20176;-85
2021/04/02 06:37:00;;;;;;;9.70;4.68;;;8.00;99.90;;;;;;4962495;28;20277;-83
2021/04/02 06:39:35;;;;;;;6.88;4.20;;;8.30;99.90;;;;;;4967021;28;20211;-83
2021/04/02 06:42:16;;;;;;;6.13;4.25;;;8.40;99.90;;;;;;4967329;28;20175;-81
2021/04/02 06:44:47;;;;;;;6.75;3.97;;;8.30;99.90;;;;;;4972933;28;20180;-82
2021/04/02 06:47:29;;;;;;;5.35;4.30;;;7.70;99.90;;;;;;4978766;28;20183;-83
2021/04/02 06:50:14;;;;;;;5.40;4.30;;;7.80;99.90;;;;;;4979912;28;20202;-82
2021/04/02 06:52:40;;;;;;;8.85;5.53;;;7.60;99.90;;;;;;4962336;28;20156;-82
2021/04/02 06:55:28;;;;;;;8.70;5.50;;;7.70;99.90;;;;;;4972521;28;20175;-81
2021/04/02 06:58:04;;;;;;;7.35;4.95;;;7.70;99.90;;;;;;4979841;28;20509;-83
2021/04/02 07:00:42;;;;;;;5.95;4.93;;;8.10;99.90;;;;;;4978134;28;20280;-84
2021/04/02 07:03:08;;;;;;;7.35;4.43;;;8.10;99.90;;;;;;4974940;28;20168;-82
2021/04/02 07:05:43;;;;;;;9.50;5.10;;;8.20;99.90;;;;;;4966610;28;20172;-82
2021/04/02 07:08:18;;;;;;;9.23;4.97;;;8.50;99.90;;;;;;4964366;28;20171;-83
2021/04/02 07:10:47;;;;;;;9.77;5.03;;;8.60;99.90;;;;;;4960406;28;20172;-82
2021/04/02 07:13:21;;;;;;;9.40;5.32;;;8.40;99.90;;;;;;4973951;28;20644;-82
2021/04/02 07:15:59;;;;;;;6.40;4.18;;;8.10;99.90;;;;;;4975033;28;20180;-82
2021/04/02 07:18:28;;;;;;;10.60;5.75;;;8.00;99.90;;;;;;4960016;28;20660;-82
2021/04/02 07:21:02;;;;;;;10.25;5.55;;;7.30;99.90;;;;;;4960451;28;20211;-81
2021/04/02 07:23:27;;;;;;;16.50;5.30;;;7.00;99.90;;;;;;4975138;28;20206;-82
2021/04/02 07:25:56;;;;;;;6.30;5.33;;;6.90;99.90;;;;;;4963417;28;20164;-83
2021/04/02 07:28:26;;;;;;;8.65;6.05;;;7.10;99.90;;;;;;4945575;29;20395;-84
2021/04/02 07:31:07;;;;;;;;;;;;;;;;;;;;;
2021/04/02 07:33:36;;;;;;;10.65;6.55;;;6.80;99.90;;;;;;4958594;28;20270;-81
2021/04/02 07:36:18;;;;;;;;;;;;;;;;;;;;;
2021/04/02 07:38:52;;;;;;;8.30;5.95;;;6.40;99.90;;;;;;4961671;29;20282;-83
2021/04/02 07:41:53;;;;;;;9.30;6.05;;;6.00;99.90;;;;;;4960370;28;20232;-85
2021/04/02 07:44:29;;;;;;;14.40;7.18;;;6.00;99.90;;;;;;4930007;28;20180;-83
2021/04/02 07:50:49;;;;;;;17.23;8.02;;;6.20;99.90;;;;;;4966212;28;20258;-84
2021/04/02 07:53:41;;;;;;;;;;;;;;;;;;;;;
2021/04/02 07:57:11;;;;;;;12.55;6.05;;;6.00;99.90;;;;;;4964338;28;20247;-85
2021/04/02 08:00:46;;;;;;;;;;;;;;;;;;;;;
2021/04/02 08:03:37;;;;;;;11.88;7.97;;;7.30;99.90;;;;;;4928626;29;20263;-84
2021/04/02 08:06:45;;;;;;;10.98;6.40;;;7.70;99.90;;;;;;4966228;28;20279;-84
2021/04/02 08:13:27;;;;;;;13.85;7.88;;;8.10;99.90;;;;;;4963512;28;20185;-83
2021/04/02 08:22:38;;;;;;;15.15;8.85;;;7.70;99.90;;;;;;5312275;23;20250;-85
2021/04/02 08:25:13;;;;;;;17.70;9.30;;;8.10;99.90;;;;;;4965020;28;20179;-81
2021/04/02 08:27:45;;;;;;;20.88;8.85;;;8.40;99.90;;;;;;4975693;28;20178;-82
2021/04/02 08:30:18;;;;;;;16.95;9.20;;;8.60;99.90;;;;;;4977363;28;20207;-82
2021/04/02 08:32:51;;;;;;;17.77;8.13;;;8.30;99.90;;;;;;4977988;28;20256;-82
2021/04/02 08:35:22;;;;;;;12.90;8.45;;;8.20;99.90;;;;;;4974588;28;20203;-81
2021/04/02 08:38:06;;;;;;;19.48;9.18;;;8.20;99.90;;;;;;4964803;28;20195;-81
2021/04/02 08:40:38;;;;;;;16.40;9.30;;;8.20;99.90;;;;;;4975413;28;20723;-80
2021/04/02 08:43:06;;;;;;;16.30;8.52;;;8.00;99.90;;;;;;4973889;28;20242;-82
2021/04/02 08:45:37;;;;;;;12.93;7.60;;;7.50;99.90;;;;;;4957758;28;20264;-82
2021/04/02 08:48:04;;;;;;;16.50;8.77;;;7.50;99.90;;;;;;4974088;28;20586;-82
2021/04/02 08:50:31;;;;;;;10.57;7.22;;;7.60;99.90;;;;;;4976009;28;20199;-82
2021/04/02 08:53:09;;;;;;;12.20;8.15;;;7.90;99.90;;;;;;4975015;28;20187;-82
2021/04/02 08:55:38;;;;;;;9.75;6.80;;;8.10;99.90;;;;;;4958326;28;20219;-83
2021/04/02 08:58:04;;;;;;;10.25;6.15;;;8.40;99.90;;;;;;4974987;28;20226;-81
2021/04/02 09:00:32;;;;;;;9.07;5.80;;;8.40;99.90;;;;;;4979416;28;20737;-80
2021/04/02 09:02:58;;;;;;;7.40;5.00;;;8.60;99.90;;;;;;4962463;28;20176;-80
2021/04/02 09:05:24;;;;;;;6.57;4.57;;;8.50;99.90;;;;;;4975205;28;20188;-79
2021/04/02 09:07:57;;;;;;;6.40;4.23;;;8.80;99.90;;;;;;4959807;28;20172;-80
2021/04/02 09:10:23;;;;;;;8.02;4.18;;;8.60;99.90;;;;;;4961090;28;20476;-81
2021/04/02 09:12:56;;;;;;;7.57;4.53;;;8.50;99.90;;;;;;4959541;28;20198;-81
2021/04/02 09:15:32;;;;;;;5.28;3.47;;;8.60;99.90;;;;;;4956772;28;20223;-83
2021/04/02 09:18:37;;;;;;;9.27;3.85;;;8.50;99.90;;;;;;4964499;28;20180;-84
2021/04/02 09:21:19;;;;;;;4.75;3.28;;;8.70;99.90;;;;;;4962417;29;20559;-84
2021/04/02 09:24:28;;;;;;;;;;;;;;;;;;;;;
2021/04/02 09:27:23;;;;;;;6.10;4.15;;;8.80;99.90;;;;;;4964144;28;20291;-82
2021/04/02 09:30:08;;;;;;;8.18;5.60;;;8.80;99.90;;;;;;4965996;28;20710;-83
2021/04/02 09:32:39;;;;;;;8.48;5.47;;;9.00;99.90;;;;;;4974092;28;20195;-82
2021/04/02 09:35:08;;;;;;;9.00;5.80;;;9.10;99.90;;;;;;4980202;28;20179;-83
2021/04/02 09:38:01;;;;;;;8.60;5.90;;;9.20;99.90;;;;;;4974244;28;20180;-82
2021/04/02 09:40:35;;;;;;;8.82;5.93;;;9.00;99.90;;;;;;4963947;29;20208;-82
2021/04/02 09:43:25;;;;;;;6.55;5.38;;;9.30;99.90;;;;;;4964083;28;20194;-82
2021/04/02 09:46:31;;;;;;;7.28;5.10;;;9.40;99.90;;;;;;4942815;29;20188;-82
2021/04/02 09:49:42;;;;;;;6.55;4.60;;;9.30;99.90;;;;;;4953831;28;20211;-81
2021/04/02 09:52:36;;;;;;;;;;;;;;;;;;;;;
2021/04/02 09:55:26;;;;;;;8.50;4.28;;;9.40;99.90;;;;;;4968778;28;20184;-83
2021/04/02 09:57:55;;;;;;;8.30;4.60;;;9.40;99.90;;;;;;4970538;29;20246;-82
2021/04/02 10:00:55;;;;;;;6.30;3.95;;;9.30;99.90;;;;;;4945258;29;20219;-82
2021/04/02 10:03:50;;;;;;;5.60;3.90;;;9.50;99.90;;;;;;4933109;29;20188;-81
2021/04/02 10:07:12;;;;;;;;;;;;;;;;;;;;;
2021/04/02 10:10:12;;;;;;;3.67;2.72;;;10.00;99.90;;;;;;4960619;29;20286;-84
2021/04/02 10:15:37;;;;;;;4.15;2.85;;;10.00;99.90;;;;;;4962549;28;20199;-82
2021/04/02 10:21:50;;;;;;;4.15;2.50;;;10.20;99.90;;;;;;4952875;28;20243;-83
2021/04/02 10:29:08;;;;;;;;;;;;;;;;;;;;;
2021/04/02 10:31:10;;;;;;;3.70;1.50;;;9.80;99.90;;;;;;4917960;29;20582;-82
2021/04/02 10:34:11;;;;;;;3.65;2.22;;;9.80;99.90;;;;;;4962913;29;20235;-82
2021/04/02 10:36:42;;;;;;;2.28;1.83;;;9.80;99.90;;;;;;4965260;29;20183;-83
2021/04/02 10:39:53;;;;;;;3.45;2.15;;;10.00;99.90;;;;;;4962064;29;20220;-83
2021/04/02 10:43:27;;;;;;;;;;;;;;;;;;;;;
2021/04/02 10:45:58;;;;;;;1.50;1.15;;;10.20;99.90;;;;;;4963033;29;20235;-83
2021/04/02 10:48:38;;;;;;;2.38;1.70;;;10.30;99.90;;;;;;4962440;29;20176;-84
2021/04/02 10:51:22;;;;;;;2.20;1.58;;;10.30;99.90;;;;;;4962499;29;20179;-84
2021/04/02 10:57:07;;;;;;;4.40;1.63;;;10.40;99.60;;;;;;4960042;28;20196;-82
2021/04/02 11:05:50;;;;;;;2.17;1.60;;;10.50;97.60;;;;;;4982335;28;20183;-82
2021/04/02 11:08:42;;;;;;;;;;;;;;;;;;;;;
2021/04/02 11:11:08;;;;;;;2.20;1.65;;;10.40;96.30;;;;;;4981367;28;20239;-82
2021/04/02 11:14:04;;;;;;;1.97;1.30;;;10.50;96.70;;;;;;4979349;28;20214;-83
2021/04/02 11:17:34;;;;;;;;;;;;;;;;;;;;;
2021/04/02 11:20:55;;;;;;;;;;;;;;;;;;;;;
2021/04/02 11:23:45;;;;;;;1.98;1.50;;;10.40;97.90;;;;;;4917405;29;20731;-81
2021/04/02 11:40:08;;;;;;;;;;;;;;;;;;;;;
2021/04/02 11:42:57;;;;;;;2.45;2.03;;;11.20;93.60;;;;;;4976334;28;20258;-82
2021/04/02 11:45:55;;;;;;;7.68;2.67;;;10.90;95.00;;;;;;4958345;28;20280;-82
2021/04/02 11:49:08;;;;;;;3.10;2.50;;;10.80;95.40;;;;;;4945675;28;20183;-83
2021/04/02 11:52:10;;;;;;;2.53;1.67;;;10.90;96.40;;;;;;4957663;28;20242;-83
2021/04/02 11:58:10;;;;;;;5.13;2.70;;;10.70;96.80;;;;;;4917883;29;20186;-83
2021/04/02 12:01:37;;;;;;;4.32;2.60;;;10.90;96.20;;;;;;4916933;29;20249;-82
2021/04/02 12:19:49;;;;;;;3.63;1.63;;;11.60;91.10;;;;;;4807759;29;20239;-82
2021/04/02 12:22:45;;;;;;;1.95;1.25;;;11.60;91.50;;;;;;4839072;29;20190;-80
2021/04/02 12:29:25;;;;;;;3.20;1.35;;;11.70;86.60;;;;;;4880117;29;20748;-82
2021/04/02 12:32:51;;;;;;;3.00;1.50;;;11.80;82.20;;;;;;4974983;28;20365;-82
2021/04/02 12:36:22;;;;;;;1.80;1.58;;;12.10;81.90;;;;;;4900538;29;20740;-82
2021/04/02 12:39:44;;;;;;;3.97;1.55;;;12.10;80.00;;;;;;4895644;29;20280;-83
2021/04/02 12:42:10;;;;;;;2.55;1.35;;;12.10;80.50;;;;;;4878775;29;20600;-83
2021/04/02 12:45:04;;;;;;;1.40;1.10;;;12.20;78.50;;;;;;4956011;28;20186;-82
2021/04/02 12:47:51;;;;;;;1.42;1.02;;;12.30;76.80;;;;;;4956234;28;20407;-82
2021/04/02 12:53:49;;;;;;;1.55;1.25;;;12.40;77.80;;;;;;4980990;28;20252;-83
2021/04/02 12:56:41;;;;;;;;;;;;;;;;;;;;;
2021/04/02 12:59:12;;;;;;;4.03;1.65;;;12.50;76.80;;;;;;4966300;28;20274;-82
2021/04/02 13:01:38;;;;;;;1.50;1.10;;;12.30;75.50;;;;;;4980888;28;20199;-81
2021/04/02 13:04:50;;;;;;;2.20;1.40;;;12.40;73.60;;;;;;4963743;28;20721;-82
2021/04/02 13:07:27;;;;;;;3.17;1.60;;;12.20;72.50;;;;;;4963651;28;20796;-82
2021/04/02 13:10:13;;;;;;;2.72;1.20;;;12.20;73.20;;;;;;4980224;28;20268;-82
2021/04/02 13:13:01;;;;;;;2.22;1.35;;;12.40;72.20;;;;;;4961589;28;20182;-82
2021/04/02 13:15:32;;;;;;;3.35;1.45;;;12.40;70.20;;;;;;4962367;28;20598;-83
2021/04/02 13:18:21;;;;;;;4.55;1.10;;;12.40;70.80;;;;;;4961757;28;20546;-80
2021/04/02 13:20:58;;;;;;;1.63;1.08;;;12.50;72.00;;;;;;4961596;28;20212;-82
2021/04/02 13:23:33;;;;;;;3.55;1.30;;;12.60;70.00;;;;;;4979384;28;20182;-82
2021/04/02 13:26:06;;;;;;;1.65;1.00;;;12.70;69.50;;;;;;4961210;28;20195;-82
2021/04/02 13:28:56;;;;;;;3.72;1.55;;;12.70;71.30;;;;;;4979918;28;20195;-82
2021/04/02 13:31:27;;;;;;;1.70;1.13;;;12.50;69.70;;;;;;4961545;28;20185;-83
2021/04/02 13:34:06;;;;;;;2.10;1.42;;;12.20;69.60;;;;;;4962536;28;20677;-84
2021/04/02 13:36:51;;;;;;;;;;;;;;;;;;;;;
2021/04/02 13:39:19;;;;;;;2.55;1.42;;;12.30;75.00;;;;;;5022156;22;20943;-83
2021/04/02 13:41:51;;;;;;;1.73;1.20;;;12.50;71.60;;;;;;4981132;28;20285;-82
2021/04/02 13:44:19;;;;;;;1.50;1.25;;;12.80;69.70;;;;;;4981149;28;20171;-83
2021/04/02 13:47:16;;;;;;;2.55;1.40;;;12.80;72.20;;;;;;4998768;28;20163;-83
2021/04/02 13:49:52;;;;;;;2.10;1.50;;;12.90;71.50;;;;;;4980956;28;20241;-84
2021/04/02 13:52:41;;;;;;;1.85;1.30;;;12.70;70.10;;;;;;4981605;28;20728;-84
2021/04/02 13:58:37;;;;;;;4.13;2.03;;;12.60;72.00;;;;;;4998861;28;20249;-85
2021/04/02 14:01:06;;;;;;;2.42;1.80;;;12.70;72.00;;;;;;4981575;28;20221;-83
2021/04/02 14:03:45;;;;;;;2.22;1.70;;;12.50;72.10;;;;;;4962944;28;20618;-83
2021/04/02 14:06:29;;;;;;;2.92;1.77;;;12.60;72.90;;;;;;4981440;28;20284;-82
2021/04/02 14:09:00;;;;;;;4.68;2.78;;;12.50;74.20;;;;;;4981120;28;20285;-83
2021/04/02 14:11:48;;;;;;;3.70;2.97;;;12.50;75.20;;;;;;4999051;28;20486;-83
2021/04/02 14:14:40;;;;;;;3.65;2.50;;;12.30;74.90;;;;;;4971630;28;20179;-83
2021/04/02 14:17:29;;;;;;;;;;;;;;;;;;;;;
2021/04/02 14:20:16;;;;;;;10.55;4.30;;;12.10;81.50;;;;;;4997808;28;20186;-84
2021/04/02 14:22:52;;;;;;;5.60;4.28;;;12.40;87.20;;;;;;4997630;28;20175;-81
2021/04/02 14:25:29;;;;;;;6.88;5.32;;;12.10;89.30;;;;;;4980151;28;20605;-82
2021/04/02 14:27:59;;;;;;;8.50;5.97;;;12.00;91.10;;;;;;4980691;28;20206;-82
2021/04/02 14:30:49;;;;;;;10.57;5.97;;;11.50;93.60;;;;;;4980143;28;20203;-83
2021/04/02 14:33:30;;;;;;;11.00;5.15;;;11.10;95.00;;;;;;4997670;28;20174;-83
2021/04/02 14:36:05;;;;;;;7.05;4.53;;;10.80;98.40;;;;;;4964039;28;20241;-84
2021/04/02 14:38:34;;;;;;;9.70;5.20;;;11.00;99.30;;;;;;4964039;28;20296;-83
2021/04/02 14:41:10;;;;;;;7.88;5.22;;;10.70;99.90;;;;;;4979690;28;20272;-82
2021/04/02 14:43:47;;;;;;;12.52;4.60;;;10.60;99.90;;;;;;4979025;28;20293;-83
2021/04/02 14:46:17;;;;;;;6.95;4.55;;;10.80;99.90;;;;;;4979599;28;20175;-83
2021/04/02 14:48:53;;;;;;;8.90;4.10;;;10.80;99.90;;;;;;4997545;28;20234;-83
2021/04/02 14:51:20;;;;;;;6.40;3.97;;;10.80;99.90;;;;;;4997137;28;20166;-82
2021/04/02 14:53:56;;;;;;;8.00;5.22;;;10.80;99.90;;;;;;4997157;28;20175;-82
2021/04/02 14:56:23;;;;;;;6.45;4.38;;;10.90;99.90;;;;;;4979279;28;20182;-81
2021/04/02 14:58:52;;;;;;;9.30;4.75;;;10.90;99.10;;;;;;4979232;28;20568;-83
2021/04/02 15:01:25;;;;;;;7.97;4.38;;;10.60;98.90;;;;;;4979478;28;20205;-82
2021/04/02 15:03:56;;;;;;;5.80;3.85;;;10.60;98.30;;;;;;4980584;28;20178;-83
2021/04/02 15:06:29;;;;;;;7.45;4.97;;;10.70;98.40;;;;;;4998432;28;20206;-84
2021/04/02 15:09:19;;;;;;;;;;;;;;;;;;;;;
2021/04/02 15:11:49;;;;;;;6.22;3.25;;;10.50;98.00;;;;;;4983719;28;20242;-83
2021/04/02 15:14:17;;;;;;;5.82;3.08;;;10.50;98.20;;;;;;4997382;28;20205;-82
2021/04/02 15:20:05;;;;;;;;;;;;;;;;;;;;;
2021/04/02 15:22:43;;;;;;;4.60;3.20;;;10.90;96.80;;;;;;4998431;28;20253;-82
2021/04/02 15:25:10;;;;;;;5.55;2.72;;;11.00;94.70;;;;;;4979992;28;20202;-83
2021/04/02 15:27:47;;;;;;;9.27;3.35;;;10.60;95.50;;;;;;4964686;28;20613;-83
2021/04/02 15:30:17;;;;;;;7.00;3.45;;;10.20;97.00;;;;;;4964270;28;20293;-82
2021/04/02 15:32:51;;;;;;;5.90;3.55;;;10.10;97.80;;;;;;4980375;28;20181;-82
2021/04/02 15:35:22;;;;;;;7.18;4.43;;;9.80;99.40;;;;;;4979942;28;20630;-80